Time;durP1;ratioP1;P1;durP2;ratioP2;P2;SDS_P1;SDS_P2;PMS_P1;PMS_P2;Temp;Humidity;BMP_temperature;BMP_pressure;BME280_temperature;BME280_humidity;BME280_pressure;Samples;Min_cycle;Max_cycle;Signal;HPM_P1;HPM_P2
2022/03/10 00:00:40;;;;;;;0.00;0.00;;;;;;;-0.72;69.17;99343.41;4882794;29;20040;-80
2022/03/10 00:03:05;;;;;;;1.50;1.40;;;;;;;-0.70;69.99;99350.06;4883180;29;20059;-80
2022/03/10 00:19:00;;;;;;;0.00;0.00;;;;;;;-0.50;69.14;99321.28;5196707;23;19927;-79
2022/03/10 00:21:25;;;;;;;0.00;0.00;;;;;;;-0.45;69.41;99322.50;4901462;29;20115;-78
2022/03/10 00:23:50;;;;;;;0.00;0.00;;;;;;;-0.43;68.94;99326.53;4902043;29;20028;-80
2022/03/10 00:26:16;;;;;;;0.00;0.00;;;;;;;-0.52;68.84;99325.91;4901558;29;20035;-78
2022/03/10 00:28:41;;;;;;;0.43;0.43;;;;;;;-0.46;68.13;99331.38;4901301;29;20104;-79
2022/03/10 00:31:07;;;;;;;0.00;0.00;;;;;;;-0.41;68.76;99331.63;4902396;29;20096;-80
2022/03/10 00:33:32;;;;;;;0.00;0.00;;;;;;;-0.46;67.92;99329.56;4900224;29;20024;-80
2022/03/10 00:35:57;;;;;;;0.00;0.00;;;;;;;-0.42;67.78;99325.53;4883400;29;20476;-75
2022/03/10 00:38:25;;;;;;;0.00;0.00;;;;;;;-0.40;66.74;99320.09;4899843;29;20183;-78
2022/03/10 00:40:50;;;;;;;0.00;0.00;;;;;;;-0.51;65.94;99314.41;4882785;29;20040;-78
2022/03/10 00:43:16;;;;;;;0.00;0.00;;;;;;;-0.56;65.30;99310.72;4882796;29;20036;-78
2022/03/10 00:45:41;;;;;;;0.00;0.00;;;;;;;-0.56;65.48;99315.97;4881526;29;20024;-78
2022/03/10 00:48:07;;;;;;;0.00;0.00;;;;;;;-0.63;64.53;99313.34;4881787;29;20503;-78
2022/03/10 00:53:52;;;;;;;0.00;0.00;;;;;;;-0.99;64.18;99304.69;5927977;23;20034;-82
2022/03/10 00:56:37;;;;;;;0.10;0.10;;;;;;;-1.08;64.52;99311.09;4874234;29;20077;-81
2022/03/10 00:59:22;;;;;;;0.00;0.00;;;;;;;-1.10;63.72;99309.66;5067041;23;20056;-81
2022/03/10 01:01:48;;;;;;;0.00;0.00;;;;;;;-1.15;63.42;99313.69;4897764;29;20036;-80
2022/03/10 01:04:13;;;;;;;1.02;0.95;;;;;;;-1.10;63.82;99304.41;4880459;29;20100;-80
2022/03/10 01:06:39;;;;;;;0.10;0.10;;;;;;;-1.11;62.96;99308.03;4883578;29;20036;-79
2022/03/10 01:09:06;;;;;;;0.57;0.52;;;;;;;-1.12;62.98;99304.63;4880664;29;20572;-79
2022/03/10 01:11:31;;;;;;;1.38;1.30;;;;;;;-1.18;62.77;99297.53;4871374;29;20055;-79
2022/03/10 01:13:57;;;;;;;0.47;0.47;;;;;;;-1.16;63.31;99308.63;4861767;29;20064;-79
2022/03/10 01:16:23;;;;;;;0.00;0.00;;;;;;;-1.24;62.91;99311.41;4862182;29;20093;-78
2022/03/10 01:18:48;;;;;;;0.00;0.00;;;;;;;-1.19;63.27;99307.19;4886727;29;20033;-77
2022/03/10 01:21:14;;;;;;;0.43;0.43;;;;;;;-1.16;62.95;99303.38;4879959;29;20025;-78
2022/03/10 01:24:27;;;;;;;0.10;0.10;;;;;;;-1.12;62.46;99304.63;4888630;29;20100;-81
2022/03/10 01:29:49;;;;;;;0.15;0.15;;;;;;;-1.18;62.95;99305.41;5434491;23;20204;-81
2022/03/10 01:32:17;;;;;;;0.20;0.17;;;;;;;-1.21;62.98;99301.34;4909272;29;20074;-80
2022/03/10 01:44:51;;;;;;;0.40;0.40;;;;;;;-1.20;62.96;99299.53;5792426;23;20036;31
2022/03/10 02:10:32;;;;;;;0.00;0.00;;;;;;;-1.83;64.46;99303.72;4842176;29;20053;-81
2022/03/10 02:13:16;;;;;;;0.45;0.45;;;;;;;-1.89;64.11;99306.25;4842093;29;20065;-82
2022/03/10 02:21:10;;;;;;;0.10;0.10;;;;;;;-1.88;62.37;99311.34;5176263;23;20059;-80
2022/03/10 02:23:44;;;;;;;0.00;0.00;;;;;;;-1.86;62.70;99313.75;5038028;23;20141;-81
2022/03/10 02:29:06;;;;;;;0.00;0.00;;;;;;;-1.75;62.33;99317.69;4862459;29;20058;-81
2022/03/10 02:34:26;;;;;;;0.00;0.00;;;;;;;-1.85;62.24;99312.75;5119221;23;20136;-79
2022/03/10 02:36:52;;;;;;;0.10;0.10;;;;;;;-1.84;62.95;99315.19;4915365;29;20054;-78
2022/03/10 02:39:18;;;;;;;0.00;0.00;;;;;;;-1.81;62.83;99320.06;4900567;29;20035;-79
2022/03/10 02:41:43;;;;;;;0.00;0.00;;;;;;;-1.84;61.52;99312.56;4905068;29;20032;-80
2022/03/10 02:44:08;;;;;;;0.05;0.05;;;;;;;-1.84;61.75;99317.81;4885968;29;20036;-81
2022/03/10 02:46:34;;;;;;;0.00;0.00;;;;;;;-1.87;61.82;99322.63;4902795;29;20036;-80
2022/03/10 02:49:55;;;;;;;0.00;0.00;;;;;;;-1.85;62.04;99316.19;4903777;29;20051;-81
2022/03/10 03:02:08;;;;;;;0.00;0.00;;;;;;;-1.78;62.31;99324.91;4932979;24;20054;-81
2022/03/10 03:04:34;;;;;;;0.00;0.00;;;;;;;-1.79;62.64;99325.91;4867807;29;20052;-79
2022/03/10 03:07:24;;;;;;;0.30;0.30;;;;;;;-1.83;62.07;99332.53;4882578;29;20030;-81
2022/03/10 03:09:51;;;;;;;0.10;0.10;;;;;;;-1.82;61.94;99335.97;4885160;29;20123;-81
2022/03/10 03:17:55;;;;;;;0.20;0.20;;;;;;;-1.79;62.50;99325.91;5049982;23;20067;-78
2022/03/10 03:20:22;;;;;;;1.57;1.27;;;;;;;-1.72;62.83;99330.41;4885557;29;20053;-80
2022/03/10 03:22:47;;;;;;;0.00;0.00;;;;;;;-1.66;63.05;99330.47;4882533;29;20064;-80
2022/03/10 03:25:44;;;;;;;0.00;0.00;;;;;;;-1.54;63.81;99328.13;4884960;29;20043;-82
2022/03/10 03:28:09;;;;;;;0.00;0.00;;;;;;;-1.43;63.62;99326.00;4888792;29;20032;-80
2022/03/10 03:30:35;;;;;;;0.00;0.00;;;;;;;-1.35;63.31;99329.28;4883228;29;20035;-79
2022/03/10 03:33:00;;;;;;;0.00;0.00;;;;;;;-1.34;63.29;99330.13;4882584;29;20037;-78
2022/03/10 03:35:26;;;;;;;0.00;0.00;;;;;;;-1.36;64.09;99327.66;4882223;29;20036;-77
2022/03/10 03:37:52;;;;;;;0.47;0.47;;;;;;;-1.30;63.45;99323.47;4897396;29;20495;-79
2022/03/10 03:40:17;;;;;;;0.00;0.00;;;;;;;-1.33;63.73;99314.19;4902336;29;20050;-78
2022/03/10 03:42:42;;;;;;;0.00;0.00;;;;;;;-1.27;63.82;99314.41;4903035;29;20028;-77
2022/03/10 03:45:09;;;;;;;0.00;0.00;;;;;;;-1.22;63.54;99319.88;4901310;29;20580;-77
2022/03/10 03:47:35;;;;;;;0.00;0.00;;;;;;;-1.16;63.30;99321.75;4891858;29;20477;-78
2022/03/10 03:50:00;;;;;;;0.00;0.00;;;;;;;-1.08;63.12;99320.78;4892451;29;20052;-80
2022/03/10 03:52:26;;;;;;;0.00;0.00;;;;;;;-1.01;63.11;99324.28;4866796;29;20040;-78
2022/03/10 03:55:10;;;;;;;0.00;0.00;;;;;;;-1.05;63.34;99320.41;4883350;29;20389;-79
2022/03/10 03:57:36;;;;;;;0.00;0.00;;;;;;;-1.05;62.59;99331.72;4884185;29;20036;-79
2022/03/10 04:00:03;;;;;;;0.00;0.00;;;;;;;-1.06;62.41;99324.84;4884102;29;20041;-79
2022/03/10 04:02:30;;;;;;;0.00;0.00;;;;;;;-1.03;62.07;99329.69;4884553;29;20032;-79
2022/03/10 04:04:56;;;;;;;0.10;0.10;;;;;;;-1.11;62.01;99329.03;4885222;29;20035;-78
2022/03/10 04:08:06;;;;;;;0.57;0.57;;;;;;;-1.11;62.04;99323.78;4892732;29;20032;-80
2022/03/10 04:14:12;;;;;;;0.00;0.00;;;;;;;-1.16;61.94;99322.56;4904899;29;20071;-81
2022/03/10 04:16:39;;;;;;;0.00;0.00;;;;;;;-1.11;62.50;99329.88;4884045;29;20056;-80
2022/03/10 04:19:05;;;;;;;0.00;0.00;;;;;;;-1.09;62.43;99327.84;4868372;29;20055;-78
2022/03/10 04:21:31;;;;;;;0.10;0.10;;;;;;;-1.17;62.79;99330.66;4895414;29;20141;-78
2022/03/10 04:24:03;;;;;;;0.00;0.00;;;;;;;-1.16;62.37;99330.44;4901117;29;20123;-81
2022/03/10 04:26:29;;;;;;;0.00;0.00;;;;;;;-1.12;62.53;99325.63;4888911;29;20084;-80
2022/03/10 04:28:54;;;;;;;0.00;0.00;;;;;;;-1.17;62.06;99330.66;4880685;29;20036;-78
2022/03/10 04:31:20;;;;;;;0.00;0.00;;;;;;;-1.10;62.38;99331.47;4898279;29;20111;-80
2022/03/10 04:34:11;;;;;;;0.00;0.00;;;;;;;-1.12;61.88;99336.13;4883219;29;20062;-82
2022/03/10 04:36:37;;;;;;;0.00;0.00;;;;;;;-1.14;61.41;99333.66;4879887;29;20037;-81
2022/03/10 04:40:05;;;;;;;0.00;0.00;;;;;;;-1.18;62.36;99329.81;4884356;29;20031;-82
2022/03/10 04:45:59;;;;;;;0.00;0.00;;;;;;;-1.25;62.10;99347.31;4905122;29;20053;-80
2022/03/10 04:48:48;;;;;;;0.00;0.00;;;;;;;-1.22;62.45;99344.34;4885396;29;20044;-81
2022/03/10 04:51:15;;;;;;;0.10;0.10;;;;;;;-1.13;62.38;99352.88;4881074;29;20046;-79
2022/03/10 04:53:41;;;;;;;0.00;0.00;;;;;;;-1.02;62.04;99344.44;4881019;29;20033;-79
2022/03/10 04:59:21;;;;;;;0.00;0.00;;;;;;;-0.72;62.02;99361.78;5068099;23;20062;-82
2022/03/10 05:02:12;;;;;;;0.10;0.10;;;;;;;-0.57;61.08;99359.03;5027892;23;20064;-81
2022/03/10 05:05:19;;;;;;;0.00;0.00;;;;;;;-0.26;60.71;99360.38;4871258;29;20139;-81
2022/03/10 05:07:55;;;;;;;0.38;0.38;;;;;;;-0.07;59.50;99364.06;4880206;29;20047;-80
2022/03/10 05:10:20;;;;;;;0.00;0.00;;;;;;;0.08;58.85;99362.06;4868053;29;20045;-80
2022/03/10 05:13:25;;;;;;;0.00;0.00;;;;;;;0.25;58.39;99362.50;4910827;29;20036;-81
2022/03/10 05:15:50;;;;;;;0.20;0.20;;;;;;;0.53;58.49;99373.88;4888934;29;20100;-79
2022/03/10 05:18:16;;;;;;;0.00;0.00;;;;;;;0.71;56.22;99368.81;4880949;29;20504;-78
2022/03/10 05:20:45;;;;;;;0.00;0.00;;;;;;;0.82;56.10;99361.31;4881733;29;20033;-77
2022/03/10 05:23:10;;;;;;;;;;;;;;;1.00;55.99;99374.66;4885605;29;20039;-76
2022/03/10 05:25:40;;;;;;;0.57;0.57;;;;;;;1.17;55.59;99390.81;4884322;29;19911;-76
2022/03/10 05:28:13;;;;;;;0.05;0.05;;;;;;;1.31;55.60;99390.78;4882427;29;20032;-79
2022/03/10 05:30:39;;;;;;;0.00;0.00;;;;;;;1.47;55.88;99392.19;4883713;29;20424;-77
2022/03/10 05:33:04;;;;;;;0.00;0.00;;;;;;;1.54;53.91;99399.06;4882260;29;20041;-78
2022/03/10 05:35:30;;;;;;;0.00;0.00;;;;;;;1.74;55.24;99401.59;4899092;29;20496;-78
2022/03/10 05:37:56;;;;;;;0.00;0.00;;;;;;;1.95;55.10;99414.72;4899603;29;20095;-76
2022/03/10 05:40:23;;;;;;;0.00;0.00;;;;;;;2.04;53.75;99414.28;4881545;29;20074;-78
2022/03/10 05:42:51;;;;;;;0.00;0.00;;;;;;;2.26;54.71;99415.78;4899036;29;20477;-78
2022/03/10 05:45:20;;;;;;;0.00;0.00;;;;;;;2.41;54.44;99418.94;4881713;29;20033;-78
2022/03/10 05:47:46;;;;;;;0.00;0.00;;;;;;;2.50;51.91;99427.41;4881954;29;20036;-78
2022/03/10 05:50:12;;;;;;;0.00;0.00;;;;;;;2.50;52.11;99427.41;4897615;29;20037;-75
2022/03/10 05:52:37;;;;;;;0.00;0.00;;;;;;;2.56;51.74;99423.91;4898995;29;20043;-78
2022/03/10 05:55:05;;;;;;;1.08;1.08;;;;;;;2.55;52.38;99431.03;4898630;29;20025;-77
2022/03/10 05:57:30;;;;;;;0.00;0.00;;;;;;;2.55;51.55;99438.13;4882301;29;20441;-77
2022/03/10 05:59:56;;;;;;;0.13;0.13;;;;;;;2.52;51.46;99451.78;4881241;29;20033;-79
2022/03/10 06:02:21;;;;;;;0.00;0.00;;;;;;;2.48;52.66;99440.00;4880985;29;20052;-79
2022/03/10 06:04:47;;;;;;;0.10;0.10;;;;;;;2.44;51.56;99441.47;4898205;29;20103;-77
2022/03/10 06:09:54;;;;;;;0.00;0.00;;;;;;;2.57;51.21;99441.38;5098766;23;20902;-81
2022/03/10 06:12:27;;;;;;;0.05;0.05;;;;;;;2.67;52.90;99444.38;4923510;29;20043;-77
2022/03/10 06:14:58;;;;;;;0.00;0.00;;;;;;;2.87;52.92;99440.78;4898670;29;20031;-77
2022/03/10 06:17:24;;;;;;;0.00;0.00;;;;;;;3.00;52.39;99445.13;4904717;29;20054;-78
2022/03/10 06:19:59;;;;;;;0.15;0.15;;;;;;;3.16;51.80;99446.41;4910523;29;20036;-80
2022/03/10 06:22:31;;;;;;;0.00;0.00;;;;;;;3.28;51.36;99443.88;4907816;29;20099;-81
2022/03/10 06:25:15;;;;;;;0.00;0.00;;;;;;;3.23;50.24;99441.06;4902253;29;20042;-82
2022/03/10 06:27:52;;;;;;;0.00;0.00;;;;;;;3.31;50.95;99448.72;4905190;29;20014;-78
2022/03/10 06:30:17;;;;;;;0.00;0.00;;;;;;;3.29;49.43;99446.28;4901388;29;20057;-78
2022/03/10 06:32:43;;;;;;;0.00;0.00;;;;;;;3.33;50.35;99436.91;4920059;29;20028;-79
2022/03/10 06:35:09;;;;;;;0.00;0.00;;;;;;;3.31;49.24;99444.25;4915154;29;20040;-78
2022/03/10 06:37:34;;;;;;;1.00;0.85;;;;;;;3.24;49.63;99445.34;4899150;29;20046;-79
2022/03/10 06:39:59;;;;;;;0.10;0.10;;;;;;;3.15;49.53;99453.53;4899693;29;20032;-77
2022/03/10 06:42:25;;;;;;;0.00;0.00;;;;;;;3.03;50.24;99453.44;4900450;29;20068;-81
2022/03/10 06:44:51;;;;;;;0.13;0.13;;;;;;;3.02;50.33;99440.44;4898566;29;20044;-80
2022/03/10 06:47:17;;;;;;;0.00;0.00;;;;;;;3.17;48.50;99464.72;4915694;29;20044;-79
2022/03/10 06:49:42;;;;;;;0.03;0.03;;;;;;;3.13;48.35;99462.72;4898219;29;20059;-76
2022/03/10 06:52:08;;;;;;;0.55;0.55;;;;;;;3.10;47.75;99457.84;4898657;29;20507;-78
2022/03/10 06:54:34;;;;;;;0.35;0.35;;;;;;;2.96;47.25;99462.44;4899344;29;20028;-79
2022/03/10 06:57:00;;;;;;;0.00;0.00;;;;;;;2.88;48.27;99466.97;4915810;29;20385;-78
2022/03/10 06:59:26;;;;;;;0.13;0.13;;;;;;;2.93;48.88;99458.41;4900208;29;20032;-79
2022/03/10 07:01:51;;;;;;;0.00;0.00;;;;;;;2.94;46.85;99454.75;4919867;29;20039;-79
2022/03/10 07:04:17;;;;;;;0.00;0.00;;;;;;;2.96;47.71;99459.78;4884487;29;20066;-78
2022/03/10 07:06:42;;;;;;;0.00;0.00;;;;;;;3.04;45.76;99452.41;4886760;29;20552;-78
2022/03/10 07:09:30;;;;;;;0.00;0.00;;;;;;;2.94;46.04;99453.91;4885333;29;20115;-83
2022/03/10 07:12:47;;;;;;;0.00;0.00;;;;;;;2.84;46.95;99464.97;4903973;29;20099;-83
2022/03/10 07:15:12;;;;;;;0.30;0.30;;;;;;;2.68;46.47;99467.09;4889662;29;20052;-76
2022/03/10 07:17:41;;;;;;;0.17;0.17;;;;;;;2.62;47.22;99464.50;4883611;29;20067;-78
2022/03/10 07:20:08;;;;;;;0.65;0.65;;;;;;;2.49;46.76;99463.56;4899644;29;20040;-76
2022/03/10 07:22:34;;;;;;;0.30;0.30;;;;;;;2.36;48.05;99464.44;4901741;29;20166;-77
2022/03/10 07:24:59;;;;;;;1.75;1.35;;;;;;;2.40;46.81;99462.19;4909657;29;20504;-79
2022/03/10 07:27:25;;;;;;;0.00;0.00;;;;;;;2.37;49.11;99465.28;4901082;29;20030;-78
2022/03/10 07:29:50;;;;;;;0.00;0.00;;;;;;;2.35;47.65;99457.53;4899806;29;20435;-77
2022/03/10 07:32:16;;;;;;;0.00;0.00;;;;;;;2.40;47.50;99457.75;4899338;29;20525;-77
2022/03/10 07:34:44;;;;;;;0.25;0.25;;;;;;;2.38;48.32;99462.41;4899656;29;20048;-78
2022/03/10 07:37:09;;;;;;;0.00;0.00;;;;;;;2.38;49.30;99467.69;4882447;29;20092;-74
2022/03/10 07:39:51;;;;;;;0.03;0.03;;;;;;;2.36;48.77;99466.28;4900055;29;20036;-81
2022/03/10 07:45:50;;;;;;;0.15;0.15;;;;;;;2.28;48.25;99458.59;4893363;29;20036;-80
2022/03/10 07:48:45;;;;;;;0.32;0.32;;;;;;;2.38;48.06;99456.31;4980246;23;20485;-81
2022/03/10 07:51:12;;;;;;;0.00;0.00;;;;;;;2.49;48.17;99454.81;4909139;29;20046;-80
2022/03/10 07:53:43;;;;;;;0.00;0.00;;;;;;;2.53;48.30;99454.19;4905797;29;20032;-81
2022/03/10 07:56:09;;;;;;;0.15;0.15;;;;;;;2.53;47.52;99458.69;4907132;29;20024;-76
2022/03/10 07:58:43;;;;;;;0.68;0.68;;;;;;;2.51;47.56;99448.31;4904419;29;20472;-81
2022/03/10 08:01:11;;;;;;;0.00;0.00;;;;;;;2.57;46.91;99449.28;4909367;29;20036;-84
2022/03/10 08:03:38;;;;;;;0.00;0.00;;;;;;;2.60;48.13;99450.69;5116342;23;20645;-79
2022/03/10 08:08:42;;;;;;;0.00;0.00;;;;;;;2.56;46.66;99443.22;5073303;23;20092;-82
2022/03/10 08:11:08;;;;;;;0.00;0.00;;;;;;;2.56;47.08;99437.13;4925457;29;20039;-79
2022/03/10 08:13:43;;;;;;;0.08;0.08;;;;;;;2.49;45.45;99444.25;4916607;29;20048;-82
2022/03/10 08:22:09;;;;;;;0.00;0.00;;;;;;;2.49;47.59;99442.44;5359058;23;20746;-80
2022/03/10 08:27:43;;;;;;;0.00;0.00;;;;;;;2.68;48.47;99442.53;5796245;23;20031;31
2022/03/10 08:30:18;;;;;;;0.00;0.00;;;;;;;2.81;47.99;99445.06;4853627;29;20050;-80
2022/03/10 09:36:41;;;;;;;0.00;0.00;;;;;;;2.20;47.17;99467.59;5643380;23;20469;31
2022/03/10 09:39:47;;;;;;;3.65;1.23;;;;;;;2.15;44.82;99462.09;5183768;23;20718;31
2022/03/10 09:46:40;;;;;;;1.20;0.57;;;;;;;2.08;45.93;99468.22;4892053;29;20288;-81
2022/03/10 09:49:38;;;;;;;0.55;0.55;;;;;;;2.06;45.44;99469.47;5495116;23;20053;31
2022/03/10 09:52:26;;;;;;;0.00;0.00;;;;;;;2.06;44.82;99465.00;4897207;29;20041;-82
2022/03/10 09:54:52;;;;;;;0.20;0.20;;;;;;;2.06;45.89;99466.81;4870614;29;20103;-79
2022/03/10 09:57:17;;;;;;;0.32;0.32;;;;;;;2.05;46.27;99473.09;4878459;29;20619;-77
2022/03/10 09:59:53;;;;;;;0.35;0.35;;;;;;;2.06;46.74;99464.19;4878805;29;20520;-79
2022/03/10 10:02:19;;;;;;;0.00;0.00;;;;;;;2.00;46.81;99480.84;4860906;29;20092;-78
2022/03/10 10:04:44;;;;;;;5.00;2.50;;;;;;;2.00;46.78;99465.84;4863258;29;20123;-79
2022/03/10 10:07:11;;;;;;;0.00;0.00;;;;;;;1.92;47.01;99463.44;4863283;29;20040;-79
2022/03/10 10:09:44;;;;;;;0.30;0.30;;;;;;;1.87;47.40;99471.16;4863424;29;20060;-76
2022/03/10 10:12:15;;;;;;;0.00;0.00;;;;;;;1.81;47.38;99485.16;4880034;29;20051;-76
2022/03/10 10:14:45;;;;;;;1.50;1.13;;;;;;;1.84;48.45;99482.13;4863551;29;20398;-79
2022/03/10 10:17:40;;;;;;;0.00;0.00;;;;;;;1.99;48.40;99468.66;4867940;29;20033;-80
2022/03/10 10:20:06;;;;;;;1.35;1.25;;;;;;;2.04;47.24;99463.59;4863858;29;20098;-78
2022/03/10 10:22:32;;;;;;;1.42;1.33;;;;;;;2.13;47.06;99469.44;4877746;29;20044;-77
2022/03/10 10:24:59;;;;;;;0.30;0.30;;;;;;;2.19;47.65;99482.59;4879543;29;20041;-78
2022/03/10 10:27:27;;;;;;;0.20;0.20;;;;;;;2.15;46.25;99470.03;4876200;29;20025;-80
2022/03/10 10:29:55;;;;;;;0.10;0.10;;;;;;;2.16;45.92;99469.84;4877682;29;20063;-81
2022/03/10 10:32:36;;;;;;;1.65;1.13;;;;;;;2.10;46.99;99483.88;4880873;29;20076;-80
2022/03/10 10:35:20;;;;;;;0.20;0.20;;;;;;;2.10;48.16;99460.13;4870375;29;20576;-82
2022/03/10 10:37:48;;;;;;;1.15;1.15;;;;;;;2.08;47.78;99472.72;4866540;29;20060;-79
2022/03/10 10:40:39;;;;;;;0.25;0.25;;;;;;;2.18;47.81;99466.97;4882567;29;20025;-78
2022/03/10 10:43:07;;;;;;;0.00;0.00;;;;;;;2.16;47.77;99471.66;4866524;29;20037;-79
2022/03/10 10:45:37;;;;;;;0.20;0.20;;;;;;;2.10;51.27;99489.16;4866899;29;20077;-79
2022/03/10 10:48:08;;;;;;;0.63;0.63;;;;;;;1.88;53.45;99493.88;4867454;29;20025;-80
2022/03/10 10:51:06;;;;;;;0.73;0.73;;;;;;;1.88;54.08;99480.69;4872817;29;20089;-83
2022/03/10 10:53:32;;;;;;;0.00;0.00;;;;;;;1.72;52.41;99469.59;4867384;29;20127;-77
2022/03/10 10:55:58;;;;;;;0.00;0.00;;;;;;;1.76;52.49;99468.16;4881041;29;20043;-78
2022/03/10 10:58:25;;;;;;;0.35;0.35;;;;;;;1.90;53.53;99462.81;4882113;29;20643;-78
2022/03/10 11:00:51;;;;;;;0.00;0.00;;;;;;;2.03;53.56;99464.63;4881968;29;20033;-79
2022/03/10 11:03:31;;;;;;;1.40;1.40;;;;;;;2.29;53.78;99452.31;4869603;29;20112;-78
2022/03/10 11:05:58;;;;;;;0.00;0.00;;;;;;;2.37;51.53;99444.16;4883444;29;20089;-78
2022/03/10 11:09:02;;;;;;;0.10;0.10;;;;;;;2.56;48.34;99447.69;4888271;29;20037;-79
2022/03/10 11:12:00;;;;;;;0.73;0.73;;;;;;;2.66;45.66;99442.75;4899444;29;20053;-81
2022/03/10 11:14:26;;;;;;;0.20;0.20;;;;;;;2.73;46.55;99458.53;4876119;29;20520;-79
2022/03/10 11:17:09;;;;;;;0.20;0.20;;;;;;;2.66;45.57;99442.75;4891900;29;20078;-80
2022/03/10 11:19:56;;;;;;;0.45;0.45;;;;;;;2.59;44.17;99454.34;4837192;29;20054;-80
2022/03/10 11:22:33;;;;;;;0.10;0.10;;;;;;;2.42;44.12;99472.53;4813645;29;20514;-80
2022/03/10 11:25:09;;;;;;;0.20;0.20;;;;;;;2.29;45.58;99463.66;4825381;29;20042;-79
2022/03/10 11:27:51;;;;;;;0.00;0.00;;;;;;;2.31;45.90;99463.47;4825985;29;20468;-80
2022/03/10 11:30:18;;;;;;;0.10;0.10;;;;;;;2.12;45.13;99481.00;4812873;29;20052;-78
2022/03/10 11:33:20;;;;;;;0.00;0.00;;;;;;;2.09;46.39;99453.22;4828537;29;20049;-81
2022/03/10 11:35:50;;;;;;;0.00;0.00;;;;;;;2.17;44.90;99445.06;4817746;29;20046;-77
2022/03/10 11:38:17;;;;;;;0.00;0.00;;;;;;;2.11;42.88;99453.81;4826409;29;20034;-81
2022/03/10 11:41:07;;;;;;;1.75;1.65;;;;;;;2.22;43.69;99447.06;4824821;29;20199;-80
2022/03/10 11:43:36;;;;;;;0.00;0.00;;;;;;;2.27;42.77;99446.44;4814461;29;20438;-81
2022/03/10 11:49:27;;;;;;;0.52;0.52;;;;;;;2.56;43.73;99422.09;4825978;29;20442;-80
2022/03/10 11:51:59;;;;;;;1.27;1.27;;;;;;;2.57;42.69;99454.56;4861558;29;20056;-81
2022/03/10 11:55:18;;;;;;;2.78;2.55;;;;;;;2.43;41.17;99461.78;4882238;29;20056;-83
2022/03/10 11:57:56;;;;;;;0.45;0.45;;;;;;;2.53;42.12;99453.41;4878945;29;20084;-80
2022/03/10 12:00:47;;;;;;;0.00;0.00;;;;;;;2.56;42.10;99445.88;4883802;29;20041;-80
2022/03/10 12:03:57;;;;;;;0.00;0.00;;;;;;;2.54;42.54;99439.19;4882436;29;20068;-82
2022/03/10 12:07:00;;;;;;;0.30;0.30;;;;;;;2.60;42.05;99453.34;4859901;29;20533;-82
2022/03/10 12:13:44;;;;;;;0.00;0.00;;;;;;;2.74;42.29;99419.75;4859628;29;20082;-82
2022/03/10 12:16:37;;;;;;;0.15;0.15;;;;;;;2.78;41.33;99444.69;4868443;29;20470;-81
2022/03/10 12:20:00;;;;;;;1.25;1.25;;;;;;;2.68;39.36;99456.53;4881785;29;20048;-81
2022/03/10 12:22:30;;;;;;;0.73;0.73;;;;;;;2.51;38.71;99466.78;4880393;29;20025;-80
2022/03/10 12:25:24;;;;;;;0.00;0.00;;;;;;;2.54;40.03;99447.91;4864982;29;20088;-81
2022/03/10 12:27:54;;;;;;;0.20;0.20;;;;;;;2.61;40.66;99455.75;4864957;29;20060;-80
2022/03/10 12:30:24;;;;;;;0.40;0.40;;;;;;;2.63;39.99;99442.38;4883655;29;20033;-81
2022/03/10 12:32:52;;;;;;;0.03;0.03;;;;;;;2.51;38.00;99452.78;4865185;29;20097;-77
2022/03/10 12:35:56;;;;;;;0.10;0.10;;;;;;;2.47;36.13;99464.81;4864157;29;20033;-80
2022/03/10 12:38:35;;;;;;;0.57;0.57;;;;;;;2.43;35.57;99468.88;4864622;29;20029;-77
2022/03/10 12:41:02;;;;;;;0.10;0.10;;;;;;;2.58;36.53;99456.19;4878455;29;20033;-78
2022/03/10 12:43:28;;;;;;;0.38;0.38;;;;;;;2.65;37.09;99458.78;4863879;29;20116;-77
2022/03/10 12:45:53;;;;;;;0.00;0.00;;;;;;;2.70;38.93;99443.13;4882001;29;20116;-79
2022/03/10 12:48:29;;;;;;;0.10;0.10;;;;;;;2.79;40.01;99436.53;4864938;29;20033;-79
2022/03/10 12:50:55;;;;;;;1.00;0.90;;;;;;;2.78;39.52;99461.34;4881286;29;20116;-79
2022/03/10 12:53:20;;;;;;;0.30;0.30;;;;;;;2.72;39.71;99460.38;4864728;29;20105;-79
2022/03/10 12:55:54;;;;;;;0.00;0.00;;;;;;;2.77;40.71;99464.19;4865586;29;20528;-80
2022/03/10 12:58:33;;;;;;;0.00;0.00;;;;;;;2.79;40.43;99467.44;4863056;29;20065;-79
2022/03/10 13:01:06;;;;;;;0.10;0.10;;;;;;;2.75;40.20;99456.50;4864380;29;20033;-79
2022/03/10 13:03:48;;;;;;;0.10;0.10;;;;;;;2.76;39.63;99465.22;4868615;29;20090;-78
2022/03/10 13:06:15;;;;;;;0.10;0.10;;;;;;;2.91;39.80;99465.72;4873372;29;20095;-78
2022/03/10 13:08:43;;;;;;;1.23;1.23;;;;;;;3.02;39.12;99448.38;4877895;29;20041;-79
2022/03/10 13:11:10;;;;;;;0.00;0.00;;;;;;;3.07;38.80;99445.88;4879153;29;20040;-79
2022/03/10 13:13:36;;;;;;;0.10;0.10;;;;;;;3.17;39.67;99438.28;4878816;29;20056;-77
2022/03/10 13:16:04;;;;;;;0.10;0.10;;;;;;;3.28;40.12;99454.44;4863412;29;20052;-77
2022/03/10 13:18:43;;;;;;;;;;;;;;;3.26;37.28;99457.31;4880416;29;20032;-80
2022/03/10 13:21:08;;;;;;;;;;;;;;;3.15;36.83;99461.47;4881602;29;19919;-79
2022/03/10 13:23:36;;;;;;;0.00;0.00;;;;;;;3.14;35.84;99469.63;4881362;29;19919;-78
2022/03/10 13:26:03;;;;;;;0.00;0.00;;;;;;;3.03;37.39;99463.19;4866404;29;20603;-77
2022/03/10 13:28:32;;;;;;;0.55;0.55;;;;;;;2.97;37.27;99458.78;4863682;29;20038;-82
2022/03/10 13:30:58;;;;;;;0.00;0.00;;;;;;;2.93;37.96;99458.41;4863238;29;20037;-80
2022/03/10 13:33:27;;;;;;;8.15;0.85;;;;;;;3.00;40.13;99469.72;4845962;29;20029;-78
2022/03/10 13:35:57;;;;;;;0.10;0.10;;;;;;;2.98;42.07;99471.78;4861744;29;20072;-80
2022/03/10 13:38:28;;;;;;;0.22;0.22;;;;;;;2.91;41.85;99496.63;5155288;23;20042;-79
2022/03/10 13:41:01;;;;;;;0.00;0.00;;;;;;;2.63;42.89;99495.97;4867216;29;20037;-78
2022/03/10 13:43:32;;;;;;;1.10;1.10;;;;;;;2.56;43.74;99498.66;4862469;29;20520;-78
2022/03/10 13:46:12;;;;;;;0.03;0.03;;;;;;;2.40;43.34;99520.28;4851446;29;20041;-80
2022/03/10 13:48:51;;;;;;;0.08;0.08;;;;;;;2.32;44.90;99510.78;4844210;29;20124;-80
2022/03/10 13:51:19;;;;;;;0.28;0.28;;;;;;;2.22;46.06;99521.78;4844698;29;20026;-79
2022/03/10 13:53:55;;;;;;;0.80;0.80;;;;;;;2.18;47.45;99512.63;4844055;29;20030;-78
2022/03/10 13:56:48;;;;;;;0.55;0.52;;;;;;;2.16;48.80;99511.22;4845383;29;20040;-78
2022/03/10 13:59:15;;;;;;;0.20;0.20;;;;;;;2.11;48.67;99505.78;4843448;29;20033;-79
2022/03/10 14:01:43;;;;;;;0.05;0.05;;;;;;;2.10;48.32;99504.16;4845839;29;20053;-79
2022/03/10 14:04:13;;;;;;;0.00;0.00;;;;;;;2.12;48.19;99508.19;4843926;29;20057;-79
2022/03/10 14:06:43;;;;;;;0.03;0.03;;;;;;;2.12;48.85;99512.69;4840399;29;20026;-79
2022/03/10 14:09:27;;;;;;;0.00;0.00;;;;;;;2.09;48.54;99516.53;4829691;29;20037;-79
2022/03/10 14:11:53;;;;;;;0.10;0.10;;;;;;;2.07;48.48;99521.22;4833017;29;20041;-78
2022/03/10 14:14:34;;;;;;;0.20;0.20;;;;;;;2.00;48.41;99533.59;4832628;29;20120;-79
2022/03/10 14:17:03;;;;;;;1.48;1.45;;;;;;;2.04;48.13;99522.44;4835271;29;20512;-81
2022/03/10 14:19:32;;;;;;;0.98;0.98;;;;;;;2.01;46.70;99543.94;4833462;29;20030;-79
2022/03/10 14:22:00;;;;;;;0.00;0.00;;;;;;;1.99;46.21;99519.63;4833024;29;20117;-78
2022/03/10 14:24:37;;;;;;;0.85;0.85;;;;;;;1.95;45.99;99520.25;4831827;29;20103;-79
2022/03/10 14:27:06;;;;;;;0.05;0.05;;;;;;;1.96;46.41;99527.94;4831783;29;20045;-79
2022/03/10 14:30:00;;;;;;;0.08;0.08;;;;;;;1.92;45.37;99522.25;4831942;29;20082;-79
2022/03/10 14:32:27;;;;;;;0.00;0.00;;;;;;;1.99;46.27;99526.72;4832708;29;20524;-78
2022/03/10 14:34:54;;;;;;;0.00;0.00;;;;;;;1.91;44.49;99533.81;4850789;29;20026;-78
2022/03/10 14:37:20;;;;;;;0.05;0.05;;;;;;;1.99;45.45;99521.44;4819016;29;20061;-79
2022/03/10 14:39:45;;;;;;;0.55;0.55;;;;;;;2.04;45.80;99529.56;4836167;29;20093;-79
2022/03/10 14:42:25;;;;;;;0.15;0.15;;;;;;;2.07;46.59;99523.84;4841211;29;20053;-82
2022/03/10 14:44:50;;;;;;;0.55;0.55;;;;;;;2.03;46.76;99539.28;4833895;29;20133;-80
2022/03/10 14:47:16;;;;;;;0.00;0.00;;;;;;;2.13;45.05;99519.56;4833998;29;20425;-79
2022/03/10 14:50:04;;;;;;;0.13;0.13;;;;;;;2.12;41.88;99525.88;4837628;29;20033;-80
2022/03/10 14:52:51;;;;;;;0.08;0.08;;;;;;;2.18;41.39;99525.03;4839906;29;20046;-81
2022/03/10 14:55:22;;;;;;;0.10;0.10;;;;;;;2.15;41.40;99528.06;4840042;29;20064;-81
2022/03/10 14:58:38;;;;;;;0.00;0.00;;;;;;;2.23;41.70;99535.75;4837832;29;20105;-83
2022/03/10 15:05:23;;;;;;;0.00;0.00;;;;;;;2.29;40.59;99539.41;5299766;23;21023;31
2022/03/10 15:10:22;;;;;;;0.00;0.00;;;;;;;2.37;41.88;99539.97;4905056;29;20532;-80
2022/03/10 15:12:56;;;;;;;0.00;0.00;;;;;;;2.34;42.40;99540.38;4899733;29;20032;-80
2022/03/10 15:15:46;;;;;;;0.00;0.00;;;;;;;2.35;43.33;99549.94;5074409;23;20058;-81